createdAt,value
2018-07-25T00:00:32.487Z,25.62
2018-07-25T00:01:32.539Z,25.64
2018-07-25T00:02:32.471Z,25.64
2018-07-25T00:03:32.494Z,25.69
2018-07-25T00:04:32.451Z,25.57
2018-07-25T00:05:32.464Z,25.58
2018-07-25T00:06:32.457Z,25.58
2018-07-25T00:07:32.483Z,25.51
2018-07-25T00:08:32.500Z,25.50
2018-07-25T00:09:32.443Z,25.52
2018-07-25T00:10:32.434Z,25.43
2018-07-25T00:11:32.429Z,25.38
2018-07-25T00:12:32.425Z,25.30
2018-07-25T00:13:32.426Z,25.32
2018-07-25T00:14:32.459Z,25.40
2018-07-25T00:15:32.421Z,25.35
2018-07-25T00:16:32.420Z,25.25
2018-07-25T00:17:32.483Z,25.28
2018-07-25T00:18:32.391Z,25.28
2018-07-25T00:19:32.397Z,25.21
2018-07-25T00:20:32.398Z,25.15
2018-07-25T00:21:32.427Z,25.23
2018-07-25T00:22:32.385Z,25.09
2018-07-25T00:23:32.387Z,25.10
2018-07-25T00:24:32.390Z,25.05
2018-07-25T00:25:32.370Z,25.09
2018-07-25T00:26:32.379Z,24.96
2018-07-25T00:27:32.376Z,24.93
2018-07-25T00:28:32.394Z,24.90
2018-07-25T00:29:32.370Z,24.93
2018-07-25T00:30:32.357Z,24.93
2018-07-25T00:31:32.397Z,24.83
2018-07-25T00:32:32.346Z,24.84
2018-07-25T00:33:32.339Z,24.68
2018-07-25T00:34:32.348Z,24.73
2018-07-25T00:35:32.339Z,24.77
2018-07-25T00:36:32.368Z,24.71
2018-07-25T00:37:32.316Z,24.69
2018-07-25T00:38:32.310Z,24.60
2018-07-25T00:39:32.318Z,24.69
2018-07-25T00:40:32.369Z,24.71
2018-07-25T00:41:32.307Z,24.68
2018-07-25T00:42:32.303Z,24.65
2018-07-25T00:43:32.303Z,24.58
2018-07-25T00:44:32.289Z,24.58
2018-07-25T00:45:32.285Z,24.55
2018-07-25T00:46:32.324Z,24.47
2018-07-25T00:47:32.278Z,24.50
2018-07-25T00:48:32.267Z,24.53
2018-07-25T00:49:32.268Z,24.49
2018-07-25T00:50:32.274Z,24.52
2018-07-25T00:51:32.616Z,24.45
2018-07-25T00:52:32.267Z,24.32
2018-07-25T00:53:32.260Z,24.34
2018-07-25T00:54:32.248Z,24.25
2018-07-25T00:55:32.254Z,24.25
2018-07-25T00:56:32.231Z,24.32
2018-07-25T00:57:32.230Z,24.28
2018-07-25T00:58:32.235Z,24.27
2018-07-25T00:59:32.231Z,24.24
2018-07-25T01:00:32.220Z,24.21
2018-07-25T01:01:32.290Z,24.12
2018-07-25T01:02:32.224Z,24.15
2018-07-25T01:03:32.205Z,24.05
2018-07-25T01:04:32.212Z,24.03
2018-07-25T01:05:32.204Z,23.98
2018-07-25T01:06:32.190Z,24.18
2018-07-25T01:07:32.200Z,24.05
2018-07-25T01:08:32.193Z,24.15
2018-07-25T01:09:32.212Z,24.06
2018-07-25T01:10:32.164Z,24.00
2018-07-25T01:11:32.173Z,24.09
2018-07-25T01:12:32.194Z,23.98
2018-07-25T01:13:32.157Z,24.12
2018-07-25T01:14:32.189Z,24.00
2018-07-25T01:15:32.144Z,23.98
2018-07-25T01:16:32.133Z,24.08
2018-07-25T01:17:32.127Z,24.06
2018-07-25T01:18:32.122Z,23.97
2018-07-25T01:19:32.185Z,24.05
2018-07-25T01:20:32.114Z,24.09
2018-07-25T01:21:32.114Z,24.03
2018-07-25T01:22:32.112Z,24.05
2018-07-25T01:23:32.103Z,24.10
2018-07-25T01:24:32.103Z,24.00
2018-07-25T01:25:32.104Z,24.00
2018-07-25T01:26:32.080Z,24.02
2018-07-25T01:27:32.089Z,23.98
2018-07-25T01:28:32.081Z,23.95
2018-07-25T01:29:32.059Z,23.84
2018-07-25T01:30:32.067Z,23.85
2018-07-25T01:31:32.069Z,23.95
2018-07-25T01:32:32.071Z,23.87
2018-07-25T01:33:32.056Z,23.97
2018-07-25T01:34:32.065Z,23.93
2018-07-25T01:35:32.100Z,23.88
2018-07-25T01:36:32.037Z,23.78
2018-07-25T01:37:32.043Z,23.80
2018-07-25T01:38:32.037Z,23.85
2018-07-25T01:39:32.017Z,23.76
2018-07-25T01:40:32.030Z,23.76
2018-07-25T01:41:32.017Z,23.85
2018-07-25T01:42:32.037Z,23.79
2018-07-25T01:43:31.993Z,23.84
2018-07-25T01:44:32.011Z,23.75
2018-07-25T01:45:32.005Z,23.75
2018-07-25T01:46:31.984Z,23.87
2018-07-25T01:47:31.974Z,23.78
2018-07-25T01:48:31.971Z,23.78
2018-07-25T01:49:32.037Z,23.87
2018-07-25T01:50:31.972Z,23.80
2018-07-25T01:51:31.971Z,23.83
2018-07-25T01:52:31.958Z,23.83
2018-07-25T01:53:31.956Z,23.87
2018-07-25T01:54:31.958Z,23.95
2018-07-25T01:55:31.989Z,23.97
2018-07-25T01:56:31.938Z,23.85
2018-07-25T01:57:31.926Z,23.94
2018-07-25T01:58:31.994Z,23.93
2018-07-25T01:59:31.926Z,23.83
2018-07-25T02:00:31.910Z,23.87
2018-07-25T02:01:32.004Z,23.85
2018-07-25T02:02:31.896Z,23.75
2018-07-25T02:03:31.910Z,23.78
2018-07-25T02:04:31.934Z,23.69
2018-07-25T02:05:31.891Z,23.68
2018-07-25T02:06:31.920Z,23.66
2018-07-25T02:07:31.888Z,23.75
2018-07-25T02:08:31.883Z,23.63
2018-07-25T02:09:31.910Z,23.72
2018-07-25T02:10:31.872Z,23.60
2018-07-25T02:11:31.870Z,23.63
2018-07-25T02:12:31.861Z,23.57
2018-07-25T02:13:31.846Z,23.55
2018-07-25T02:14:31.877Z,23.54
2018-07-25T02:15:31.854Z,23.50
2018-07-25T02:16:31.848Z,23.38
2018-07-25T02:17:31.828Z,23.38
2018-07-25T02:18:31.873Z,23.40
2018-07-25T02:19:31.884Z,23.36
2018-07-25T02:20:31.818Z,23.35
2018-07-25T02:21:31.863Z,23.25
2018-07-25T02:22:31.815Z,23.28
2018-07-25T02:23:31.798Z,23.22
2018-07-25T02:24:31.791Z,23.23
2018-07-25T02:25:31.832Z,23.22
2018-07-25T02:26:31.794Z,23.15
2018-07-25T02:27:31.786Z,23.23
2018-07-25T02:28:31.780Z,23.22
2018-07-25T02:29:31.780Z,23.19
2018-07-25T02:30:31.827Z,23.27
2018-07-25T02:31:31.763Z,23.04
2018-07-25T02:32:31.745Z,23.04
2018-07-25T02:33:31.743Z,23.04
2018-07-25T02:34:31.748Z,23.05
2018-07-25T02:35:31.740Z,22.98
2018-07-25T02:36:31.752Z,23.02
2018-07-25T02:37:31.772Z,22.91
2018-07-25T02:38:31.723Z,23.01
2018-07-25T02:39:31.720Z,22.91
2018-07-25T02:40:31.717Z,23.02
2018-07-25T02:41:31.710Z,23.04
2018-07-25T02:42:31.820Z,23.01
2018-07-25T02:43:31.695Z,23.07
2018-07-25T02:44:31.691Z,23.05
2018-07-25T02:45:31.688Z,22.98
2018-07-25T02:46:31.683Z,23.04
2018-07-25T02:47:31.682Z,22.91
2018-07-25T02:48:31.703Z,23.04
2018-07-25T02:49:31.661Z,23.01
2018-07-25T02:50:31.694Z,22.91
2018-07-25T02:51:31.660Z,22.83
2018-07-25T02:52:31.640Z,22.79
2018-07-25T02:53:31.648Z,22.77
2018-07-25T02:54:31.640Z,22.79
2018-07-25T02:55:31.664Z,22.82
2018-07-25T02:56:31.626Z,22.86
2018-07-25T02:57:31.607Z,22.76
2018-07-25T02:58:31.620Z,22.76
2018-07-25T02:59:31.605Z,22.73
2018-07-25T03:00:31.665Z,22.70
2018-07-25T03:01:31.601Z,22.72
2018-07-25T03:02:31.590Z,22.62
2018-07-25T03:03:31.572Z,22.68
2018-07-25T03:04:31.576Z,22.75
2018-07-25T03:05:31.566Z,22.80
2018-07-25T03:06:31.577Z,22.82
2018-07-25T03:07:31.564Z,22.76
2018-07-25T03:08:31.543Z,22.83
2018-07-25T03:09:31.555Z,22.80
2018-07-25T03:10:31.537Z,22.82
2018-07-25T03:11:31.571Z,22.80
2018-07-25T03:12:31.536Z,22.80
2018-07-25T03:13:31.526Z,22.85
2018-07-25T03:14:31.524Z,22.83
2018-07-25T03:15:31.518Z,22.79
2018-07-25T03:16:31.513Z,22.83
2018-07-25T03:17:31.492Z,22.88
2018-07-25T03:18:31.507Z,22.86
2018-07-25T03:19:31.518Z,22.79
2018-07-25T03:20:31.477Z,22.75
2018-07-25T03:21:31.480Z,22.67
2018-07-25T03:22:31.465Z,22.58
2018-07-25T03:23:31.465Z,22.62
2018-07-25T03:24:31.503Z,22.70
2018-07-25T03:25:31.456Z,22.61
2018-07-25T03:26:31.459Z,22.67
2018-07-25T03:27:31.440Z,22.64
2018-07-25T03:28:31.440Z,22.64
2018-07-25T03:29:31.434Z,22.68
2018-07-25T03:30:31.438Z,22.61
2018-07-25T03:31:31.526Z,22.70
2018-07-25T03:32:31.422Z,22.75
2018-07-25T03:33:31.405Z,22.80
2018-07-25T03:34:31.471Z,22.85
2018-07-25T03:35:31.399Z,22.80
2018-07-25T03:36:31.391Z,22.83
2018-07-25T03:37:31.463Z,22.85
2018-07-25T03:38:31.376Z,22.82
2018-07-25T03:39:31.377Z,22.82
2018-07-25T03:40:31.390Z,22.80
2018-07-25T03:41:31.367Z,22.80
2018-07-25T03:42:31.360Z,22.76
2018-07-25T03:43:31.354Z,22.83
2018-07-25T03:44:31.347Z,22.75
2018-07-25T03:45:31.331Z,22.72
2018-07-25T03:46:31.409Z,22.68
2018-07-25T03:47:31.342Z,22.75
2018-07-25T03:48:31.318Z,22.72
2018-07-25T03:49:31.323Z,22.68
2018-07-25T03:50:31.311Z,22.67
2018-07-25T03:51:31.315Z,22.75
2018-07-25T03:52:31.378Z,22.61
2018-07-25T03:53:31.299Z,22.70
2018-07-25T03:54:31.292Z,22.62
2018-07-25T03:55:31.273Z,22.75
2018-07-25T03:56:31.280Z,22.57
2018-07-25T03:57:31.266Z,22.65
2018-07-25T03:58:31.280Z,22.62
2018-07-25T03:59:31.306Z,22.64
2018-07-25T04:00:31.244Z,22.67
2018-07-25T04:01:31.247Z,22.64
2018-07-25T04:02:31.303Z,22.54
2018-07-25T04:03:31.237Z,22.64
2018-07-25T04:04:31.229Z,22.62
2018-07-25T04:05:31.216Z,22.70
2018-07-25T04:06:31.235Z,22.62
2018-07-25T04:07:31.220Z,22.64
2018-07-25T04:08:31.204Z,22.61
2018-07-25T04:09:31.195Z,22.58
2018-07-25T04:10:31.206Z,22.70
2018-07-25T04:11:31.233Z,22.62
2018-07-25T04:12:31.208Z,22.62
2018-07-25T04:13:31.203Z,22.64
2018-07-25T04:14:31.173Z,22.62
2018-07-25T04:15:31.175Z,22.73
2018-07-25T04:16:31.171Z,22.60
2018-07-25T04:17:31.152Z,22.65
2018-07-25T04:18:31.148Z,22.73
2018-07-25T04:19:31.151Z,22.62
2018-07-25T04:20:31.137Z,22.60
2018-07-25T04:21:31.160Z,22.51
2018-07-25T04:22:31.129Z,22.51
2018-07-25T04:23:31.120Z,22.52
2018-07-25T04:24:31.121Z,22.49
2018-07-25T04:25:31.107Z,22.46
2018-07-25T04:26:31.100Z,22.46
2018-07-25T04:27:31.100Z,22.57
2018-07-25T04:28:31.112Z,22.58
2018-07-25T04:29:31.111Z,22.61
2018-07-25T04:30:31.083Z,22.60
2018-07-25T04:31:31.071Z,22.68
2018-07-25T04:32:31.073Z,22.64
2018-07-25T04:33:31.095Z,22.61
2018-07-25T04:34:31.060Z,22.70
2018-07-25T04:35:31.044Z,22.72
2018-07-25T04:36:31.050Z,22.73
2018-07-25T04:37:31.033Z,22.80
2018-07-25T04:38:31.063Z,22.75
2018-07-25T04:39:31.043Z,22.82
2018-07-25T04:40:31.007Z,22.76
2018-07-25T04:41:31.018Z,22.85
2018-07-25T04:42:31.015Z,22.79
2018-07-25T04:43:31.035Z,22.79
2018-07-25T04:44:31.002Z,22.83
2018-07-25T04:45:30.994Z,22.72
2018-07-25T04:46:30.995Z,22.80
2018-07-25T04:47:31.013Z,22.73
2018-07-25T04:48:30.998Z,22.76
2018-07-25T04:49:30.956Z,22.77
2018-07-25T04:50:30.962Z,22.80
2018-07-25T04:51:30.968Z,22.79
2018-07-25T04:52:30.947Z,22.79
2018-07-25T04:53:30.961Z,22.76
2018-07-25T04:54:30.947Z,22.75
2018-07-25T04:55:30.943Z,22.85
2018-07-25T04:56:30.931Z,22.86
2018-07-25T04:57:30.925Z,22.86
2018-07-25T04:58:30.987Z,22.85
2018-07-25T04:59:30.917Z,22.86
2018-07-25T05:00:30.904Z,22.91
2018-07-25T05:01:30.903Z,22.88
2018-07-25T05:02:30.901Z,22.94
2018-07-25T05:03:30.894Z,22.90
2018-07-25T05:04:30.907Z,22.91
2018-07-25T05:05:30.893Z,23.09
2018-07-25T05:06:30.942Z,22.95
2018-07-25T05:07:30.868Z,23.05
2018-07-25T05:08:30.851Z,23.07
2018-07-25T05:09:30.863Z,23.07
2018-07-25T05:10:30.843Z,23.07
2018-07-25T05:11:30.838Z,23.05
2018-07-25T05:12:30.927Z,23.09
2018-07-25T05:13:30.829Z,23.05
2018-07-25T05:14:30.828Z,23.09
2018-07-25T05:15:30.831Z,23.09
2018-07-25T05:16:30.830Z,23.09
2018-07-25T05:17:30.802Z,23.19
2018-07-25T05:18:30.839Z,23.13
2018-07-25T05:19:30.791Z,23.09
2018-07-25T05:20:30.796Z,23.05
2018-07-25T05:21:30.778Z,23.12
2018-07-25T05:22:30.789Z,23.12
2018-07-25T05:23:30.826Z,23.12
2018-07-25T05:24:30.771Z,23.12
2018-07-25T05:25:30.759Z,23.10
2018-07-25T05:26:30.763Z,23.19
2018-07-25T05:27:30.746Z,23.13
2018-07-25T05:28:30.772Z,23.10
2018-07-25T05:29:30.743Z,23.28
2018-07-25T05:30:30.735Z,23.10
2018-07-25T05:31:30.732Z,23.12
2018-07-25T05:32:30.717Z,23.07
2018-07-25T05:33:30.750Z,23.13
2018-07-25T05:34:30.725Z,23.13
2018-07-25T05:35:30.760Z,23.15
2018-07-25T05:36:30.699Z,23.15
2018-07-25T05:37:30.695Z,23.23
2018-07-25T05:38:30.723Z,23.25
2018-07-25T05:39:30.685Z,23.12
2018-07-25T05:40:30.723Z,23.17
2018-07-25T05:41:30.668Z,23.23
2018-07-25T05:42:30.668Z,23.31
2018-07-25T05:43:30.664Z,23.27
2018-07-25T05:44:30.657Z,23.28
2018-07-25T05:45:30.681Z,23.27
2018-07-25T05:46:30.647Z,23.28
2018-07-25T05:47:30.642Z,23.38
2018-07-25T05:48:30.635Z,23.39
2018-07-25T05:49:30.719Z,23.43
2018-07-25T05:50:30.637Z,23.50
2018-07-25T05:51:30.623Z,23.42
2018-07-25T05:52:30.686Z,23.48
2018-07-25T05:53:30.615Z,23.57
2018-07-25T05:54:30.602Z,23.51
2018-07-25T05:55:30.602Z,23.55
2018-07-25T05:56:30.594Z,23.55
2018-07-25T05:57:30.595Z,23.55
2018-07-25T05:58:30.638Z,23.65
2018-07-25T05:59:30.588Z,23.66
2018-07-25T06:00:30.573Z,23.58
2018-07-25T06:01:30.576Z,23.70
2018-07-25T06:02:30.579Z,23.66
2018-07-25T06:03:30.598Z,23.69
2018-07-25T06:04:30.601Z,23.70
2018-07-25T06:05:30.538Z,23.66
2018-07-25T06:06:30.533Z,23.72
2018-07-25T06:07:30.531Z,23.75
2018-07-25T06:08:30.591Z,23.70
2018-07-25T06:09:30.560Z,23.79
2018-07-25T06:10:30.513Z,23.88
2018-07-25T06:11:30.517Z,23.84
2018-07-25T06:12:30.532Z,23.84
2018-07-25T06:13:30.565Z,23.97
2018-07-25T06:14:30.502Z,23.93
2018-07-25T06:15:30.497Z,23.93
2018-07-25T06:16:30.495Z,24.00
2018-07-25T06:17:30.492Z,24.02
2018-07-25T06:18:30.464Z,23.98
2018-07-25T06:19:30.506Z,24.06
2018-07-25T06:20:30.473Z,24.02
2018-07-25T06:21:30.500Z,24.13
2018-07-25T06:22:30.465Z,24.16
2018-07-25T06:23:30.452Z,24.21
2018-07-25T06:24:30.435Z,24.22
2018-07-25T06:25:30.446Z,24.27
2018-07-25T06:26:30.440Z,24.24
2018-07-25T06:27:30.449Z,24.20
2018-07-25T06:28:30.431Z,24.28
2018-07-25T06:29:30.541Z,24.27
2018-07-25T06:30:30.414Z,24.31
2018-07-25T06:31:30.415Z,24.27
2018-07-25T06:32:30.444Z,24.37
2018-07-25T06:33:30.406Z,24.39
2018-07-25T06:34:30.406Z,24.31
2018-07-25T06:35:30.422Z,24.35
2018-07-25T06:36:30.392Z,24.47
2018-07-25T06:37:30.391Z,24.49
2018-07-25T06:38:30.418Z,24.49
2018-07-25T06:39:30.452Z,24.53
2018-07-25T06:40:30.373Z,24.64
2018-07-25T06:41:30.370Z,24.53
2018-07-25T06:42:30.357Z,24.61
2018-07-25T06:43:30.445Z,24.62
2018-07-25T06:44:30.359Z,24.71
2018-07-25T06:45:30.346Z,24.76
2018-07-25T06:46:30.339Z,24.65
2018-07-25T06:47:30.333Z,24.69
2018-07-25T06:48:30.976Z,24.69
2018-07-25T06:49:30.349Z,24.80
2018-07-25T06:50:30.404Z,24.90
2018-07-25T06:51:30.312Z,24.90
2018-07-25T06:52:30.313Z,24.90
2018-07-25T06:53:30.308Z,24.91
2018-07-25T06:54:30.359Z,24.99
2018-07-25T06:55:30.309Z,25.08
2018-07-25T06:56:30.305Z,25.09
2018-07-25T06:57:30.307Z,25.10
2018-07-25T06:58:30.299Z,25.17
2018-07-25T06:59:30.287Z,25.13
2018-07-25T07:00:30.336Z,25.13
2018-07-25T07:01:30.272Z,25.20
2018-07-25T07:02:30.278Z,25.17
2018-07-25T07:03:30.265Z,25.24
2018-07-25T07:04:30.286Z,25.18
2018-07-25T07:05:30.258Z,25.23
2018-07-25T07:06:30.293Z,25.24
2018-07-25T07:07:30.263Z,25.18
2018-07-25T07:08:30.256Z,25.32
2018-07-25T07:09:30.361Z,25.24
2018-07-25T07:10:30.236Z,25.25
2018-07-25T07:11:30.285Z,25.27
2018-07-25T07:12:30.262Z,25.27
2018-07-25T07:13:30.232Z,25.36
2018-07-25T07:14:30.236Z,25.38
2018-07-25T07:15:30.220Z,25.43
2018-07-25T07:16:30.252Z,25.42
2018-07-25T07:17:30.243Z,25.43
2018-07-25T07:18:30.206Z,25.50
2018-07-25T07:19:30.209Z,25.47
2018-07-25T07:20:30.207Z,25.51
2018-07-25T07:21:30.192Z,25.51
2018-07-25T07:22:30.223Z,25.51
2018-07-25T07:23:30.189Z,25.52
2018-07-25T07:24:30.187Z,25.54
2018-07-25T07:25:30.179Z,25.67
2018-07-25T07:26:30.192Z,25.67
2018-07-25T07:27:30.203Z,25.61
2018-07-25T07:28:30.165Z,25.65
2018-07-25T07:29:30.168Z,25.70
2018-07-25T07:30:30.171Z,25.70
2018-07-25T07:31:30.203Z,25.70
2018-07-25T07:32:30.191Z,25.73
2018-07-25T07:33:30.207Z,25.72
2018-07-25T07:34:30.141Z,25.83
2018-07-25T07:35:30.138Z,25.79
2018-07-25T07:36:30.126Z,25.88
2018-07-25T07:37:30.261Z,25.91
2018-07-25T07:38:30.141Z,25.88
2018-07-25T07:39:30.135Z,25.90
2018-07-25T07:40:30.138Z,25.98
2018-07-25T07:41:30.119Z,26.07
2018-07-25T07:42:30.123Z,26.05
2018-07-25T07:43:30.113Z,26.18
2018-07-25T07:44:30.124Z,26.17
2018-07-25T07:45:30.105Z,26.29
2018-07-25T07:46:30.098Z,26.25
2018-07-25T07:47:30.130Z,26.29
2018-07-25T07:48:30.101Z,26.32
2018-07-25T07:49:30.135Z,26.33
2018-07-25T07:50:30.121Z,26.39
2018-07-25T07:51:30.084Z,26.45
2018-07-25T07:52:30.088Z,26.50
2018-07-25T07:53:30.076Z,26.47
2018-07-25T07:54:30.087Z,26.55
2018-07-25T07:55:30.532Z,26.58
2018-07-25T07:56:30.063Z,26.62
2018-07-25T07:57:30.077Z,26.65
2018-07-25T07:58:30.067Z,26.58
2018-07-25T07:59:30.151Z,26.65
2018-07-25T08:00:30.061Z,26.65
2018-07-25T08:01:30.054Z,26.77
2018-07-25T08:02:30.050Z,26.77
2018-07-25T08:03:30.109Z,26.81
2018-07-25T08:04:30.122Z,26.84
2018-07-25T08:05:30.034Z,26.89
2018-07-25T08:06:30.033Z,26.92
2018-07-25T08:07:30.089Z,26.87
2018-07-25T08:08:30.032Z,26.89
2018-07-25T08:09:30.035Z,26.88
2018-07-25T08:10:30.095Z,26.95
2018-07-25T08:11:30.016Z,26.99
2018-07-25T08:12:30.031Z,26.94
2018-07-25T08:13:30.066Z,27.03
2018-07-25T08:14:30.015Z,27.06
2018-07-25T08:15:30.033Z,27.10
2018-07-25T08:16:30.028Z,27.18
2018-07-25T08:17:30.076Z,27.24
2018-07-25T08:18:30.006Z,27.27
2018-07-25T08:19:30.002Z,27.40
2018-07-25T08:20:30.006Z,27.36
2018-07-25T08:21:30.056Z,27.41
2018-07-25T08:22:29.995Z,27.37
2018-07-25T08:23:30.025Z,27.51
2018-07-25T08:24:29.990Z,27.50
2018-07-25T08:25:30.001Z,27.54
2018-07-25T08:26:30.015Z,27.59
2018-07-25T08:27:29.983Z,27.60
2018-07-25T08:28:29.993Z,27.67
2018-07-25T08:29:29.978Z,27.62
2018-07-25T08:30:29.988Z,27.62
2018-07-25T08:31:30.010Z,27.81
2018-07-25T08:32:29.970Z,27.75
2018-07-25T08:33:29.983Z,27.94
2018-07-25T08:34:30.029Z,27.99
2018-07-25T08:35:29.979Z,27.87
2018-07-25T08:36:29.985Z,27.97
2018-07-25T08:37:29.983Z,27.94
2018-07-25T08:38:30.062Z,27.94
2018-07-25T08:39:29.954Z,27.99
2018-07-25T08:40:29.970Z,28.04
2018-07-25T08:41:29.952Z,28.14
2018-07-25T08:42:29.949Z,28.03
2018-07-25T08:43:29.947Z,28.17
2018-07-25T08:44:29.959Z,28.12
2018-07-25T08:45:29.951Z,28.18
2018-07-25T08:46:29.937Z,28.22
2018-07-25T08:47:29.941Z,28.31
2018-07-25T08:48:29.939Z,28.43
2018-07-25T08:49:29.936Z,28.51
2018-07-25T08:50:29.923Z,28.88
2018-07-25T08:51:29.931Z,29.06
2018-07-25T08:52:30.015Z,29.30
2018-07-25T08:53:29.936Z,29.60
2018-07-25T08:54:29.931Z,29.92
2018-07-25T08:55:29.911Z,30.23
2018-07-25T08:56:29.937Z,30.53
2018-07-25T08:57:29.921Z,30.89
2018-07-25T08:58:29.922Z,31.25
2018-07-25T08:59:29.988Z,31.65
2018-07-25T09:00:29.941Z,31.70
2018-07-25T09:01:29.952Z,31.63
2018-07-25T09:02:29.920Z,31.61
2018-07-25T09:03:29.924Z,31.57
2018-07-25T09:04:29.913Z,31.66
2018-07-25T09:05:29.959Z,32.03
2018-07-25T09:06:30.054Z,32.40
2018-07-25T09:07:29.947Z,32.92
2018-07-25T09:08:29.931Z,33.15
2018-07-25T09:09:29.992Z,33.54
2018-07-25T09:10:30.047Z,33.75
2018-07-25T09:11:29.945Z,34.15
2018-07-25T09:12:30.362Z,34.35
2018-07-25T09:13:29.960Z,34.47
2018-07-25T09:14:30.180Z,34.70
2018-07-25T09:15:29.965Z,34.84
2018-07-25T09:16:29.955Z,34.77
2018-07-25T09:17:29.991Z,34.77
2018-07-25T09:18:29.967Z,34.65
2018-07-25T09:19:29.971Z,34.44
2018-07-25T09:20:29.959Z,34.31
2018-07-25T09:21:29.977Z,34.12
2018-07-25T09:22:29.997Z,34.03
2018-07-25T09:23:29.984Z,33.87
2018-07-25T09:24:29.989Z,33.86
2018-07-25T09:25:30.054Z,33.72
2018-07-25T09:26:29.991Z,33.56
2018-07-25T09:27:30.040Z,33.39
2018-07-25T09:28:29.991Z,33.32
2018-07-25T09:29:29.999Z,33.53
2018-07-25T09:30:29.995Z,33.69
2018-07-25T09:31:30.009Z,34.05
2018-07-25T09:32:30.016Z,34.37
2018-07-25T09:33:30.021Z,34.75
2018-07-25T09:34:30.384Z,35.07
2018-07-25T09:35:30.025Z,35.38
2018-07-25T09:36:30.051Z,35.60
2018-07-25T09:37:30.036Z,35.89
2018-07-25T09:38:30.039Z,36.12
2018-07-25T09:39:30.312Z,36.32
2018-07-25T09:40:30.068Z,36.46
2018-07-25T09:41:30.055Z,36.78
2018-07-25T09:42:30.055Z,36.76
2018-07-25T09:43:30.080Z,36.69
2018-07-25T09:44:30.123Z,36.84
2018-07-25T09:45:30.072Z,36.91
2018-07-25T09:46:30.092Z,37.10
2018-07-25T09:47:30.096Z,37.41
2018-07-25T09:48:30.100Z,37.67
2018-07-25T09:49:30.104Z,37.91
2018-07-25T09:50:30.479Z,38.09
2018-07-25T09:51:30.131Z,38.22
2018-07-25T09:52:30.118Z,38.20
2018-07-25T09:53:30.145Z,38.00
2018-07-25T09:54:30.147Z,38.16
2018-07-25T09:55:30.145Z,38.42
2018-07-25T09:56:30.159Z,38.74
2018-07-25T09:57:30.183Z,38.99
2018-07-25T09:58:30.169Z,39.40
2018-07-25T09:59:30.183Z,39.66
2018-07-25T10:00:30.178Z,39.91
2018-07-25T10:01:30.215Z,39.89
2018-07-25T10:02:30.203Z,39.79
2018-07-25T10:03:30.207Z,39.60
2018-07-25T10:04:30.221Z,39.50
2018-07-25T10:05:30.266Z,39.13
2018-07-25T10:06:30.622Z,38.84
2018-07-25T10:07:30.284Z,38.71
2018-07-25T10:08:30.268Z,38.66
2018-07-25T10:09:30.278Z,38.84
2018-07-25T10:10:30.270Z,38.96
2018-07-25T10:11:30.363Z,39.03
2018-07-25T10:12:30.368Z,39.22
2018-07-25T10:13:30.296Z,39.28
2018-07-25T10:14:30.308Z,39.26
2018-07-25T10:15:30.318Z,39.11
2018-07-25T10:16:30.324Z,38.90
2018-07-25T10:17:30.333Z,38.74
2018-07-25T10:18:30.333Z,38.54
2018-07-25T10:19:30.347Z,38.34
2018-07-25T10:20:30.337Z,38.03
2018-07-25T10:21:30.355Z,37.94
2018-07-25T10:22:30.354Z,37.93
2018-07-25T10:23:30.454Z,38.18
2018-07-25T10:24:30.370Z,38.53
2018-07-25T10:25:30.434Z,38.84
2018-07-25T10:26:30.380Z,39.07
2018-07-25T10:27:30.456Z,39.23
2018-07-25T10:28:30.418Z,39.50
2018-07-25T10:29:30.454Z,39.97
2018-07-25T10:30:32.063Z,40.23
2018-07-25T10:31:30.419Z,40.57
2018-07-25T10:32:30.416Z,40.61
2018-07-25T10:33:30.435Z,40.57
2018-07-25T10:34:30.445Z,40.53
2018-07-25T10:35:30.469Z,40.61
2018-07-25T10:36:30.449Z,40.46
2018-07-25T10:37:30.496Z,40.25
2018-07-25T10:38:30.472Z,40.45
2018-07-25T10:39:30.493Z,40.84
2018-07-25T10:40:30.594Z,41.10
2018-07-25T10:41:30.585Z,41.29
2018-07-25T10:42:30.535Z,41.60
2018-07-25T10:43:30.531Z,41.74
2018-07-25T10:44:30.533Z,41.73
2018-07-25T10:45:30.538Z,41.60
2018-07-25T10:46:30.553Z,41.44
2018-07-25T10:47:30.644Z,41.20
2018-07-25T10:48:30.588Z,41.20
2018-07-25T10:49:30.580Z,41.25
2018-07-25T10:50:30.592Z,41.20
2018-07-25T10:51:30.600Z,41.13
2018-07-25T10:52:30.607Z,41.02
2018-07-25T10:53:30.625Z,40.83
2018-07-25T10:54:30.615Z,40.65
2018-07-25T10:55:30.626Z,40.38
2018-07-25T10:56:30.635Z,40.15
2018-07-25T10:57:30.750Z,39.88
2018-07-25T10:58:30.658Z,39.94
2018-07-25T10:59:30.662Z,39.88
2018-07-25T11:00:30.669Z,40.06
2018-07-25T11:01:30.670Z,40.12
2018-07-25T11:02:30.683Z,40.20
2018-07-25T11:03:30.686Z,40.16
2018-07-25T11:04:30.692Z,39.97
2018-07-25T11:05:30.740Z,39.89
2018-07-25T11:06:30.713Z,39.55
2018-07-25T11:07:30.753Z,39.23
2018-07-25T11:08:30.724Z,39.09
2018-07-25T11:09:30.731Z,38.74
2018-07-25T11:10:30.767Z,38.56
2018-07-25T11:11:30.743Z,38.41
2018-07-25T11:12:30.820Z,38.20
2018-07-25T11:13:30.756Z,38.20
2018-07-25T11:14:30.754Z,38.03
2018-07-25T11:15:30.765Z,37.85
2018-07-25T11:16:31.189Z,37.69
2018-07-25T11:17:30.771Z,37.51
2018-07-25T11:18:30.784Z,37.28
2018-07-25T11:19:30.828Z,37.24
2018-07-25T11:20:30.798Z,37.13
2018-07-25T11:21:30.811Z,37.28
2018-07-25T11:22:30.797Z,37.64
2018-07-25T11:23:30.803Z,38.13
2018-07-25T11:24:30.851Z,38.53
2018-07-25T11:25:30.819Z,38.91
2018-07-25T11:26:30.813Z,39.44
2018-07-25T11:27:30.825Z,39.84
2018-07-25T11:28:30.833Z,40.13
2018-07-25T11:29:31.187Z,40.35
2018-07-25T11:30:30.844Z,40.48
2018-07-25T11:31:30.851Z,40.51
2018-07-25T11:32:30.873Z,40.39
2018-07-25T11:33:30.859Z,40.41
2018-07-25T11:34:30.873Z,40.58
2018-07-25T11:35:30.887Z,40.76
2018-07-25T11:36:30.908Z,40.84
2018-07-25T11:37:30.898Z,40.94
2018-07-25T11:38:30.913Z,41.01
2018-07-25T11:39:30.914Z,41.17
2018-07-25T11:40:30.936Z,41.14
2018-07-25T11:41:30.925Z,41.29
2018-07-25T11:42:30.935Z,41.20
2018-07-25T11:43:30.940Z,41.23
2018-07-25T11:44:30.951Z,41.47
2018-07-25T11:45:30.997Z,41.66
2018-07-25T11:46:31.012Z,42.05
2018-07-25T11:47:30.987Z,42.27
2018-07-25T11:48:31.012Z,42.27
2018-07-25T11:49:30.999Z,42.25
2018-07-25T11:50:31.123Z,42.36
2018-07-25T11:51:31.064Z,42.57
2018-07-25T11:52:31.032Z,42.73
2018-07-25T11:53:31.050Z,42.92
2018-07-25T11:54:31.044Z,43.19
2018-07-25T11:55:31.148Z,43.27
2018-07-25T11:56:31.105Z,43.37
2018-07-25T11:57:31.099Z,43.53
2018-07-25T11:58:31.092Z,43.78
2018-07-25T11:59:31.113Z,43.98
2018-07-25T12:00:31.147Z,44.21
2018-07-25T12:01:31.251Z,44.37
2018-07-25T12:02:31.173Z,44.47
2018-07-25T12:03:31.165Z,44.50
2018-07-25T12:04:31.194Z,44.41
2018-07-25T12:05:31.208Z,44.58
2018-07-25T12:06:31.232Z,44.58
2018-07-25T12:07:31.215Z,44.67
2018-07-25T12:08:31.232Z,44.83
2018-07-25T12:09:31.228Z,44.89
2018-07-25T12:10:31.274Z,45.07
2018-07-25T12:11:31.301Z,44.94
2018-07-25T12:12:31.274Z,44.75
2018-07-25T12:13:31.286Z,44.47
2018-07-25T12:14:31.303Z,43.79
2018-07-25T12:15:31.363Z,43.40
2018-07-25T12:16:31.331Z,42.99
2018-07-25T12:17:31.345Z,42.84
2018-07-25T12:18:31.376Z,42.62
2018-07-25T12:19:31.381Z,42.35
2018-07-25T12:20:31.357Z,42.12
2018-07-25T12:21:31.397Z,41.89
2018-07-25T12:22:31.381Z,41.54
2018-07-25T12:23:31.377Z,41.36
2018-07-25T12:24:31.403Z,41.16
2018-07-25T12:25:31.398Z,40.87
2018-07-25T12:26:31.410Z,40.60
2018-07-25T12:27:31.456Z,40.45
2018-07-25T12:28:31.490Z,40.23
2018-07-25T12:29:31.417Z,40.10
2018-07-25T12:30:31.427Z,39.91
2018-07-25T12:31:31.439Z,39.88
2018-07-25T12:32:31.449Z,39.79
2018-07-25T12:33:31.462Z,39.66
2018-07-25T12:34:32.158Z,39.41
2018-07-25T12:35:31.475Z,39.07
2018-07-25T12:36:31.471Z,38.98
2018-07-25T12:37:31.481Z,38.81
2018-07-25T12:38:31.484Z,38.53
2018-07-25T12:39:31.492Z,38.22
2018-07-25T12:40:31.488Z,37.96
2018-07-25T12:41:31.533Z,37.89
2018-07-25T12:42:31.513Z,37.74
2018-07-25T12:43:31.500Z,37.55
2018-07-25T12:44:31.546Z,37.40
2018-07-25T12:45:31.517Z,37.13
2018-07-25T12:46:31.525Z,37.12
2018-07-25T12:47:31.529Z,37.02
2018-07-25T12:48:31.548Z,37.02
2018-07-25T12:49:31.561Z,36.91
2018-07-25T12:50:31.537Z,36.88
2018-07-25T12:51:31.566Z,36.85
2018-07-25T12:52:31.577Z,36.81